Nearby METAR Reports

 

KHIF - Hill Afb/Ogden, Utah, USA
Distance from station: ENE 6mi, 9km
Updated: Fri, 22-Sep-2017 10:58am MDT
Light rain, Overcast
Light rain, Overcast
 Wind from NNW
Wind: NNW 5 mph , 7 km/h
Temperature: 41°F , 5°C
Wind Chill: 38°F , 3°C
Dew Point: 39°F , 4°C
Humidity: 93%
Barometer: 29.91 inHg , 1012.9 hPa
Summary: Light rain
Clouds: Overcast
Visibility: 4 miles , 6 km
Cloud details: Partly cloudy 600 ft
Overcast 1800 ft
2017/09/22 16:58 KHIF 221658Z 34004KT 4SM -RA SCT006 OVC018 05/04 A2991 RMK AO2A CIG 006 RWY32 SLP120 P0003 T00520042
KOGD - Ogden, Utah, USA
Distance from station: NNE 9mi, 14km
Updated: Fri, 22-Sep-2017 11:04am MDT
Overcast
Overcast
 Wind from NNW
Wind: NNW 7 mph , 11 km/h
Temperature: 43°F , 6°C
Wind Chill: 39°F , 4°C
Dew Point: 39°F , 4°C
Humidity: 87%
Barometer: 29.91 inHg , 1012.9 hPa
Clouds: Overcast
Visibility: 10 miles , 16 km
Cloud details: Few Clouds 700 ft
Mostly cloudy 1900 ft
Overcast 3200 ft
2017/09/22 17:04 KOGD 221704Z 34006KT 10SM FEW007 BKN019 OVC032 06/04 A2991 RMK AO2 RAE00 P0000 T00610039
 
KSLC - Salt Lake City, Utah, USA
Distance from station: SSE 21mi, 34km
Updated: Fri, 22-Sep-2017 10:54am MDT
Overcast
Overcast
 Wind from N
Wind: N 6 mph , 9 km/h
Temperature: 48°F , 9°C
Wind Chill: 45°F , 7°C
Dew Point: 43°F , 6°C
Humidity: 82%
Barometer: 29.90 inHg , 1012.5 hPa
Clouds: Overcast
Visibility: 10 miles , 16 km
Cloud details: Few Clouds 1100 ft
Partly cloudy 2500 ft
Overcast 3500 ft
2017/09/22 16:54 KSLC 221654Z 35005KT 10SM FEW011 SCT025 OVC035 09/06 A2990 RMK AO2 SLP113 SH VC NW AND DSNT N T00940056
KLGU - Logan, Utah, USA
Distance from station: NNE 50mi, 80km
Updated: Fri, 22-Sep-2017 10:51am MDT
Light rain, Overcast
Light rain, Overcast
 Wind from NW
Wind: NW 6 mph , 9 km/h
Temperature: 45°F , 7°C
Wind Chill: 42°F , 6°C
Dew Point: 39°F , 4°C
Humidity: 81%
Barometer: 29.91 inHg , 1012.9 hPa
Summary: Light rain
Clouds: Overcast
Visibility: 10 miles , 16 km
Cloud details: Overcast 2100 ft
2017/09/22 16:51 KLGU 221651Z AUTO 32005KT 10SM -RA OVC021 07/04 A2991 RMK AO2 RAB13 SLP122 P0000 T00720044 $
 
K36U - Heber/Russ Mcdon, Utah, USA
Distance from station: SE 53mi, 85km
Updated: Fri, 22-Sep-2017 10:55am MDT
Partly cloudy
Partly cloudy
 Wind from SSW
Wind: SSW 6 mph , 9 km/h
Temperature: 48°F , 9°C
Wind Chill: 45°F , 7°C
Dew Point: 37°F , 3°C
Humidity: 66%
Barometer: 29.87 inHg , 1011.5 hPa
Clouds: Partly cloudy
Visibility: 10 miles , 16 km
Cloud details: Partly cloudy 3000 ft
Partly cloudy 3500 ft
2017/09/22 16:55 K36U 221655Z AUTO 21005KT 10SM SCT030 SCT035 09/03 A2987 RMK AO2
KEVW - Evanston, Wyoming, USA
Distance from station: ENE 55mi, 89km
Updated: Fri, 22-Sep-2017 10:53am MDT
Mostly cloudy
Mostly cloudy
 Wind from SW
Wind: SW 8 mph , 13 km/h
Temperature: 39°F , 4°C
Wind Chill: 33°F , 1°C
Dew Point: 37°F , 3°C
Humidity: 93%
Barometer: 29.90 inHg , 1012.5 hPa
Clouds: Mostly cloudy
Visibility: 10 miles , 16 km
Cloud details: Partly cloudy 1000 ft
Mostly cloudy 1600 ft
Mostly cloudy 2100 ft
2017/09/22 16:53 KEVW 221653Z AUTO 23007KT 10SM SCT010 BKN016 BKN021 04/03 A2990 RMK AO2 SLP099 T00440033
 
KPVU - Provo Muni, Utah, USA
Distance from station: SSE 62mi, 100km
Updated: Fri, 22-Sep-2017 10:56am MDT
Overcast
Overcast
 Wind from E
Wind: E 8 mph , 13 km/h
Temperature: 46°F , 8°C
Wind Chill: 42°F , 6°C
Dew Point: 41°F , 5°C
Humidity: 82%
Barometer: 29.91 inHg , 1012.9 hPa
Clouds: Overcast
Visibility: 10 miles , 16 km
Cloud details: Few Clouds 1800 ft
Mostly cloudy 3200 ft
Overcast 8000 ft
2017/09/22 16:56 KPVU 221656Z 10007KT 10SM FEW018 BKN032 OVC080 08/05 A2991 RMK AO2 SLP123 T00830050
KDPG - Dugway Prvg Grou, Utah, USA
Distance from station: SW 75mi, 121km
Updated: Thu, 21-Sep-2017 4:55pm MDT
NOT Current
Light rain, Overcast
Light rain, Overcast
 Wind from NW
Wind: NW 21 mph , 33 km/h, Gust: 29 mph , 46 km/h
Temperature: 43°F , 6°C
Wind Chill: 34°F , 1°C
Dew Point: 39°F , 4°C
Humidity: 87%
Barometer: 29.75 inHg , 1007.5 hPa
Summary: Light rain
Clouds: Overcast
Visibility: 6 miles , 10 km
Cloud details: Few Clouds 1000 ft
Partly cloudy 1600 ft
Mostly cloudy 2600 ft
Overcast 3200 ft
2017/09/21 22:55 KDPG 212255Z 32018G25KT 6SM -RA FEW010 SCT016 BKN026 OVC032 06/04 A2975 RMK PK WND 32029/2115 SLP051 P0000 T00630038 LAST
 
KENV - Wendover (aut), Utah, USA
Distance from station: WSW 105mi, 169km
Updated: Fri, 22-Sep-2017 10:56am MDT
Clear
Clear
 Wind from ESE
Wind: ESE 5 mph , 7 km/h
Temperature: 46°F , 8°C
Wind Chill: 44°F , 7°C
Dew Point: 37°F , 3°C
Humidity: 71%
Barometer: 29.93 inHg , 1013.5 hPa
Clouds: Clear
Visibility: 10 miles , 16 km
2017/09/22 16:56 KENV 221656Z AUTO 11004KT 10SM CLR 08/03 A2993 RMK AO2 SLP139 T00780033
KPUC - Price, Utah, USA
Distance from station: SE 123mi, 197km
Updated: Fri, 22-Sep-2017 10:53am MDT
Mostly cloudy
Mostly cloudy
 Wind from SSW
Wind: SSW 9 mph , 15 km/h
Temperature: 61°F , 16°C
Dew Point: 34°F , 1°C
Humidity: 36%
Barometer: 29.82 inHg , 1009.8 hPa
Clouds: Mostly cloudy
Visibility: 10 miles , 16 km
Cloud details: Mostly cloudy 6000 ft
Mostly cloudy 8000 ft
2017/09/22 16:53 KPUC 221653Z AUTO 21008KT 10SM BKN060 BKN080 16/01 A2982 RMK AO2 SLP040 T01560006
 
KPIH - Pocatello, Idaho, USA
Distance from station: NNW 130mi, 208km
Updated: Fri, 22-Sep-2017 8:53am MDT
NOT Current
Overcast
Overcast
 Wind from WSW
Wind: WSW 14 mph , 22 km/h
Temperature: 39°F , 4°C
Wind Chill: 31°F , -1°C
Dew Point: 37°F , 3°C
Humidity: 93%
Barometer: 29.90 inHg , 1012.5 hPa
Clouds: Overcast
Visibility: 10 miles , 16 km
Cloud details: Mostly cloudy 800 ft
Overcast 2600 ft
2017/09/22 14:53 KPIH 221453Z 24012KT 10SM BKN008 OVC026 04/03 A2990 RMK AO2 RAE04B24E50 SLP124 P0000 60009 T00440033 53014
KBYI - Burley, Idaho, USA
Distance from station: NW 134mi, 216km
Updated: Fri, 22-Sep-2017 10:53am MDT
Overcast
Overcast
 Wind from W
Wind: W 10 mph , 17 km/h
Temperature: 43°F , 6°C
Wind Chill: 37°F , 3°C
Dew Point: 37°F , 3°C
Humidity: 81%
Barometer: 29.93 inHg , 1013.5 hPa
Clouds: Overcast
Visibility: 10 miles , 16 km
Cloud details: Mostly cloudy 1800 ft
Overcast 3700 ft
2017/09/22 16:53 KBYI 221653Z AUTO 27009KT 10SM BKN018 OVC037 06/03 A2993 RMK AO2 SLP130 T00610028
 
KVEL - Vernal, Utah, USA
Distance from station: ESE 140mi, 226km
Updated: Fri, 22-Sep-2017 10:53am MDT
Clear
Clear
 Wind from calm
Wind: Calm
Temperature: 61°F , 16°C
Dew Point: 41°F , 5°C
Humidity: 48%
Barometer: 29.81 inHg , 1009.5 hPa
Clouds: Clear
Visibility: 10 miles , 16 km
2017/09/22 16:53 KVEL 221653Z AUTO 00000KT 10SM CLR 16/05 A2981 RMK AO2 SLP034 T01610050
KBPI - Big Piney, Wyoming, USA
Distance from station: NE 145mi, 234km
Updated: Fri, 22-Sep-2017 10:53am MDT
Few Clouds
Few Clouds
 Wind from SSW
Wind: SSW 13 mph , 20 km/h
Temperature: 46°F , 8°C
Wind Chill: 40°F , 4°C
Dew Point: 36°F , 2°C
Humidity: 66%
Barometer: 29.89 inHg , 1012.2 hPa
Clouds: Few Clouds
Visibility: 10 miles , 16 km
Cloud details: Few Clouds 2800 ft
2017/09/22 16:53 KBPI 221653Z AUTO 20011KT 10SM FEW028 08/02 A2989 RMK AO2 SLP067 T00830017